Time;durP1;ratioP1;P1;durP2;ratioP2;P2;SDS_P1;SDS_P2;PMS_P1;PMS_P2;Temp;Humidity;BMP_temperature;BMP_pressure;BME280_temperature;BME280_humidity;BME280_pressure;Samples;Min_cycle;Max_cycle;Signal;HPM_P1;HPM_P2
2023/06/05 00:02:00;;;;;;;3.10;1.60;;;;;;;;;;107722;275;38800;-39
2023/06/05 00:04:35;;;;;;;4.40;1.80;;;;;;;;;;107685;283;39951;-38
2023/06/05 00:07:15;;;;;;;4.00;1.90;;;;;;;;;;107699;283;42896;-40
2023/06/05 00:09:51;;;;;;;3.70;1.40;;;;;;;;;;107703;276;43104;-39
2023/06/05 00:12:25;;;;;;;4.10;1.80;;;;;;;;;;107722;283;38859;-38
2023/06/05 00:15:01;;;;;;;4.00;1.80;;;;;;;;;;107700;283;39468;-38
2023/06/05 00:17:38;;;;;;;4.00;1.70;;;;;;;;;;107707;275;44026;-38
2023/06/05 00:20:15;;;;;;;3.40;1.60;;;;;;;;;;107700;276;42328;-38
2023/06/05 00:22:51;;;;;;;3.80;1.70;;;;;;;;;;107682;283;39831;-38
2023/06/05 00:25:30;;;;;;;3.90;1.60;;;;;;;;;;107578;283;175170;-38
2023/06/05 00:28:04;;;;;;;3.50;1.50;;;;;;;;;;107701;275;43174;-38
2023/06/05 00:30:44;;;;;;;4.00;1.80;;;;;;;;;;107704;283;43212;-38
2023/06/05 00:33:22;;;;;;;3.90;1.70;;;;;;;;;;107703;283;38808;-38
2023/06/05 00:35:56;;;;;;;4.00;1.80;;;;;;;;;;107670;283;39997;-38
2023/06/05 00:38:30;;;;;;;4.30;2.00;;;;;;;;;;107754;283;43235;-38
2023/06/05 00:41:06;;;;;;;3.70;1.70;;;;;;;;;;107733;283;43131;-38
2023/06/05 00:43:40;;;;;;;3.60;1.70;;;;;;;;;;107755;283;40192;-38
2023/06/05 00:46:17;;;;;;;4.40;1.90;;;;;;;;;;107687;283;39492;-38
2023/06/05 00:48:51;;;;;;;4.20;1.90;;;;;;;;;;107753;283;44090;-38
2023/06/05 00:51:26;;;;;;;4.30;2.00;;;;;;;;;;107703;275;41887;-38
2023/06/05 00:54:02;;;;;;;4.20;2.20;;;;;;;;;;107727;283;39937;-38
2023/06/05 00:56:36;;;;;;;4.00;2.30;;;;;;;;;;107709;283;39681;-38
2023/06/05 00:59:12;;;;;;;4.80;2.60;;;;;;;;;;107747;283;42869;-38
2023/06/05 01:01:47;;;;;;;5.20;2.60;;;;;;;;;;107718;283;43272;-38
2023/06/05 01:04:23;;;;;;;5.30;2.70;;;;;;;;;;107735;283;38907;-38
2023/06/05 01:06:58;;;;;;;4.90;2.60;;;;;;;;;;107689;283;39889;-38
2023/06/05 01:09:33;;;;;;;4.60;2.60;;;;;;;;;;107741;275;44118;-38
2023/06/05 01:12:16;;;;;;;4.60;2.80;;;;;;;;;;107601;276;175103;-38
2023/06/05 01:14:56;;;;;;;4.70;2.60;;;;;;;;;;107744;283;39883;-38
2023/06/05 01:17:33;;;;;;;4.80;2.90;;;;;;;;;;107398;283;338349;-38
2023/06/05 01:20:11;;;;;;;5.00;2.90;;;;;;;;;;107722;283;44043;-38
2023/06/05 01:22:49;;;;;;;5.40;3.00;;;;;;;;;;107731;283;42194;-38
2023/06/05 01:25:22;;;;;;;4.90;3.00;;;;;;;;;;107717;275;39881;-38
2023/06/05 01:28:04;;;;;;;5.40;3.00;;;;;;;;;;107715;283;46039;-38
2023/06/05 01:30:46;;;;;;;4.60;2.90;;;;;;;;;;107710;283;43004;-38
2023/06/05 01:33:27;;;;;;;5.20;2.90;;;;;;;;;;107722;280;43311;-38
2023/06/05 01:36:04;;;;;;;5.30;3.30;;;;;;;;;;107713;275;38995;-38
2023/06/05 01:38:42;;;;;;;5.10;3.00;;;;;;;;;;107742;276;39789;-38
2023/06/05 01:41:17;;;;;;;5.00;3.10;;;;;;;;;;107692;283;43033;-38
2023/06/05 01:43:52;;;;;;;5.40;3.40;;;;;;;;;;107724;276;42490;-38
2023/06/05 01:46:30;;;;;;;5.00;3.40;;;;;;;;;;107680;283;38777;-38
2023/06/05 01:49:08;;;;;;;5.70;3.40;;;;;;;;;;107713;276;40030;-38
2023/06/05 01:51:41;;;;;;;5.20;3.30;;;;;;;;;;107577;288;175534;-38
2023/06/05 01:54:15;;;;;;;5.70;3.30;;;;;;;;;;107688;283;42655;-38
2023/06/05 01:56:53;;;;;;;5.30;3.10;;;;;;;;;;107650;283;38805;-38
2023/06/05 01:59:28;;;;;;;5.00;2.90;;;;;;;;;;107727;276;39748;-38
2023/06/05 02:02:03;;;;;;;6.00;2.90;;;;;;;;;;107712;283;42658;-38
2023/06/05 02:04:39;;;;;;;5.10;2.90;;;;;;;;;;107709;283;42451;-38
2023/06/05 02:07:14;;;;;;;5.10;2.70;;;;;;;;;;107686;276;38764;-38
2023/06/05 02:10:02;;;;;;;4.70;2.90;;;;;;;;;;107700;283;39757;-38
2023/06/05 02:12:37;;;;;;;5.20;2.90;;;;;;;;;;107723;283;43353;-38
2023/06/05 02:15:13;;;;;;;5.90;3.30;;;;;;;;;;107707;276;42171;-38
2023/06/05 02:17:52;;;;;;;5.20;3.00;;;;;;;;;;107662;276;38772;-38
2023/06/05 02:20:30;;;;;;;5.00;2.90;;;;;;;;;;107733;283;39826;-38
2023/06/05 02:23:06;;;;;;;4.80;2.80;;;;;;;;;;107696;276;42912;-38
2023/06/05 02:25:41;;;;;;;5.00;2.90;;;;;;;;;;107755;275;42148;-38
2023/06/05 02:28:16;;;;;;;5.00;2.90;;;;;;;;;;107028;275;891688;-38
2023/06/05 02:30:50;;;;;;;5.60;2.90;;;;;;;;;;107719;275;39527;-38
2023/06/05 02:33:25;;;;;;;4.90;3.00;;;;;;;;;;107720;276;43970;-38
2023/06/05 02:36:03;;;;;;;4.90;2.90;;;;;;;;;;107674;283;42190;-38
2023/06/05 02:38:39;;;;;;;5.00;2.70;;;;;;;;;;107631;283;39221;-38
2023/06/05 02:41:15;;;;;;;4.80;2.80;;;;;;;;;;107731;283;39624;-38
2023/06/05 02:43:50;;;;;;;5.30;3.00;;;;;;;;;;107707;276;43078;-38
2023/06/05 02:46:28;;;;;;;5.60;2.90;;;;;;;;;;107713;283;42122;-38
2023/06/05 02:49:06;;;;;;;5.00;2.80;;;;;;;;;;107715;276;38795;-38
2023/06/05 02:51:41;;;;;;;5.10;3.10;;;;;;;;;;107730;283;40903;-38
2023/06/05 02:54:16;;;;;;;5.60;3.00;;;;;;;;;;107704;276;43248;-38
2023/06/05 02:56:53;;;;;;;5.20;2.80;;;;;;;;;;107716;283;43367;-38
2023/06/05 02:59:31;;;;;;;4.80;2.70;;;;;;;;;;107677;283;39914;-38
2023/06/05 03:02:07;;;;;;;4.50;2.50;;;;;;;;;;107698;283;41939;-38
2023/06/05 03:04:42;;;;;;;5.00;2.90;;;;;;;;;;107736;283;42735;-38
2023/06/05 03:07:17;;;;;;;4.70;2.70;;;;;;;;;;107741;275;43557;-39
2023/06/05 03:09:52;;;;;;;4.70;2.80;;;;;;;;;;107698;283;44623;-38
2023/06/05 03:12:26;;;;;;;4.80;2.80;;;;;;;;;;107713;283;40880;-38
2023/06/05 03:15:04;;;;;;;4.70;2.80;;;;;;;;;;107746;283;42879;-38
2023/06/05 03:17:39;;;;;;;5.00;2.80;;;;;;;;;;107696;283;43537;-38
2023/06/05 03:20:15;;;;;;;4.80;2.50;;;;;;;;;;107698;275;39840;-38
2023/06/05 03:22:50;;;;;;;4.90;3.00;;;;;;;;;;107732;276;39723;-38
2023/06/05 03:25:27;;;;;;;4.80;2.80;;;;;;;;;;107727;275;43104;-38
2023/06/05 03:28:02;;;;;;;5.10;2.70;;;;;;;;;;107663;283;43359;-38
2023/06/05 03:30:38;;;;;;;4.60;2.60;;;;;;;;;;107724;283;45013;-38
2023/06/05 03:33:14;;;;;;;4.80;2.50;;;;;;;;;;107690;284;40134;-38
2023/06/05 03:35:49;;;;;;;4.70;2.50;;;;;;;;;;107714;275;42952;-38
2023/06/05 03:38:22;;;;;;;4.60;2.60;;;;;;;;;;107653;283;42285;-38
2023/06/05 03:40:58;;;;;;;4.50;2.60;;;;;;;;;;107726;276;45090;-38
2023/06/05 03:43:37;;;;;;;4.70;2.60;;;;;;;;;;107734;283;40098;-38
2023/06/05 03:46:18;;;;;;;4.90;2.40;;;;;;;;;;107711;283;43003;-38
2023/06/05 03:49:00;;;;;;;4.50;2.40;;;;;;;;;;107682;276;41882;-38
2023/06/05 03:51:36;;;;;;;4.70;2.50;;;;;;;;;;107706;283;40076;-38
2023/06/05 03:54:16;;;;;;;4.70;2.50;;;;;;;;;;107688;283;39845;-38
2023/06/05 03:56:52;;;;;;;5.00;2.50;;;;;;;;;;107739;279;44064;-38
2023/06/05 03:59:28;;;;;;;4.70;2.50;;;;;;;;;;107695;276;42129;-38
2023/06/05 04:02:07;;;;;;;4.60;2.40;;;;;;;;;;107611;283;175557;-38
2023/06/05 04:04:42;;;;;;;4.40;2.30;;;;;;;;;;107739;283;39656;-38
2023/06/05 04:07:19;;;;;;;4.50;2.60;;;;;;;;;;107722;283;43607;-38
2023/06/05 04:09:58;;;;;;;4.70;2.50;;;;;;;;;;107661;275;42092;-38
2023/06/05 04:12:33;;;;;;;4.50;2.50;;;;;;;;;;107709;275;39953;-38
2023/06/05 04:15:10;;;;;;;4.50;2.40;;;;;;;;;;107730;275;39821;-38
2023/06/05 04:17:46;;;;;;;4.80;2.40;;;;;;;;;;107711;283;43038;-38
2023/06/05 04:20:24;;;;;;;4.60;2.50;;;;;;;;;;107677;283;42182;-38
2023/06/05 04:22:59;;;;;;;4.50;2.40;;;;;;;;;;107710;283;38924;-38
2023/06/05 04:25:34;;;;;;;4.40;2.50;;;;;;;;;;107717;275;39860;-38
2023/06/05 04:28:09;;;;;;;4.70;2.40;;;;;;;;;;107726;275;42657;-38
2023/06/05 04:30:45;;;;;;;5.30;2.60;;;;;;;;;;107699;283;43149;-38
2023/06/05 04:33:19;;;;;;;5.10;2.60;;;;;;;;;;107733;275;38804;-38
2023/06/05 04:35:54;;;;;;;5.40;2.70;;;;;;;;;;107684;283;39737;-38
2023/06/05 04:38:31;;;;;;;5.80;2.90;;;;;;;;;;107742;275;42953;-38
2023/06/05 04:41:05;;;;;;;5.40;2.50;;;;;;;;;;107684;283;43182;-38
2023/06/05 04:43:41;;;;;;;5.40;2.40;;;;;;;;;;107712;283;39958;-38
2023/06/05 04:46:18;;;;;;;4.70;2.60;;;;;;;;;;107697;283;40235;-38
2023/06/05 04:48:55;;;;;;;5.20;2.70;;;;;;;;;;107705;283;42886;-38
2023/06/05 04:51:31;;;;;;;6.60;2.90;;;;;;;;;;107708;283;42137;-38
2023/06/05 04:54:07;;;;;;;6.30;2.90;;;;;;;;;;107724;283;38790;-38
2023/06/05 04:56:45;;;;;;;6.90;3.20;;;;;;;;;;107713;283;39779;-38
2023/06/05 04:59:22;;;;;;;6.60;3.10;;;;;;;;;;107698;275;43004;-38
2023/06/05 05:01:57;;;;;;;7.70;3.20;;;;;;;;;;107652;275;42108;-38
2023/06/05 05:04:31;;;;;;;9.50;3.50;;;;;;;;;;107714;283;38584;-38
2023/06/05 05:07:06;;;;;;;7.30;3.50;;;;;;;;;;107740;283;39461;-38
2023/06/05 05:09:40;;;;;;;10.60;3.80;;;;;;;;;;107725;283;42944;-38
2023/06/05 05:12:16;;;;;;;9.00;3.60;;;;;;;;;;107676;283;42165;-38
2023/06/05 05:14:53;;;;;;;10.60;3.60;;;;;;;;;;107720;283;38892;-38
2023/06/05 05:17:30;;;;;;;9.50;3.30;;;;;;;;;;107720;283;39705;-38
2023/06/05 05:20:06;;;;;;;9.20;3.10;;;;;;;;;;107690;283;43121;-38
2023/06/05 05:22:41;;;;;;;9.90;3.50;;;;;;;;;;107705;283;42122;-38
2023/06/05 05:25:15;;;;;;;9.40;3.80;;;;;;;;;;107702;283;38916;-38
2023/06/05 05:27:51;;;;;;;10.40;3.50;;;;;;;;;;107753;275;39784;-38
2023/06/05 05:30:26;;;;;;;9.40;3.40;;;;;;;;;;107722;275;43157;-38
2023/06/05 05:33:00;;;;;;;9.80;3.40;;;;;;;;;;107691;283;47923;-38
2023/06/05 05:35:39;;;;;;;8.10;3.40;;;;;;;;;;107723;283;39072;-38
2023/06/05 05:38:17;;;;;;;9.30;3.70;;;;;;;;;;107716;283;39700;-38
2023/06/05 05:40:55;;;;;;;8.50;3.50;;;;;;;;;;107708;283;42996;-38
2023/06/05 05:43:30;;;;;;;8.70;3.70;;;;;;;;;;107705;283;48631;-38
2023/06/05 05:46:07;;;;;;;7.90;3.30;;;;;;;;;;107744;283;38786;-38
2023/06/05 05:48:41;;;;;;;8.70;3.20;;;;;;;;;;107738;280;39708;-38
2023/06/05 05:51:19;;;;;;;8.10;3.00;;;;;;;;;;107688;283;43368;-37
2023/06/05 05:53:57;;;;;;;6.90;3.00;;;;;;;;;;107604;276;48394;-38
2023/06/05 05:56:36;;;;;;;8.80;3.80;;;;;;;;;;107735;276;38796;-38
2023/06/05 05:59:15;;;;;;;9.10;2.80;;;;;;;;;;107732;283;41412;-38
2023/06/05 06:01:52;;;;;;;7.70;3.00;;;;;;;;;;107762;276;43021;-36
2023/06/05 06:04:26;;;;;;;7.20;2.90;;;;;;;;;;107737;274;42153;-36
2023/06/05 06:07:00;;;;;;;7.20;2.90;;;;;;;;;;107756;281;38765;-36
2023/06/05 06:09:35;;;;;;;6.80;2.80;;;;;;;;;;107790;274;39697;-35
2023/06/05 06:12:10;;;;;;;6.10;2.70;;;;;;;;;;107616;274;43346;-35
2023/06/05 06:14:44;;;;;;;7.80;2.70;;;;;;;;;;107785;282;42122;-36
2023/06/05 06:17:17;;;;;;;5.90;2.70;;;;;;;;;;107721;274;40065;-35
2023/06/05 06:19:51;;;;;;;6.80;2.70;;;;;;;;;;107749;282;39995;-35
2023/06/05 06:22:26;;;;;;;6.70;2.50;;;;;;;;;;107694;282;43969;-35
2023/06/05 06:25:03;;;;;;;7.40;2.60;;;;;;;;;;107777;281;42139;-35
2023/06/05 06:27:38;;;;;;;6.00;2.40;;;;;;;;;;107739;281;38770;-33
2023/06/05 06:30:16;;;;;;;6.10;2.20;;;;;;;;;;107775;282;39881;-34
2023/06/05 06:32:51;;;;;;;5.40;2.40;;;;;;;;;;107712;282;43099;-33
2023/06/05 06:35:25;;;;;;;6.50;2.30;;;;;;;;;;107623;274;175167;-35
2023/06/05 06:38:01;;;;;;;8.20;2.50;;;;;;;;;;107788;274;38772;-36
2023/06/05 06:40:37;;;;;;;6.50;2.30;;;;;;;;;;107738;283;40792;-36
2023/06/05 06:43:13;;;;;;;7.10;2.40;;;;;;;;;;107718;282;43964;-34
2023/06/05 06:45:46;;;;;;;6.20;2.30;;;;;;;;;;107719;282;42397;-36
2023/06/05 06:48:20;;;;;;;6.20;2.30;;;;;;;;;;107782;281;38786;-36
2023/06/05 06:50:56;;;;;;;6.00;2.10;;;;;;;;;;107786;281;40310;-37
2023/06/05 06:53:31;;;;;;;4.90;2.00;;;;;;;;;;107730;282;42908;-35
2023/06/05 06:56:05;;;;;;;5.50;2.00;;;;;;;;;;107762;282;42186;-37
2023/06/05 06:58:40;;;;;;;5.20;2.10;;;;;;;;;;107789;281;38909;-37
2023/06/05 07:01:15;;;;;;;3.70;1.90;;;;;;;;;;107729;274;39693;-37
2023/06/05 07:03:51;;;;;;;5.00;1.80;;;;;;;;;;107593;274;175452;-36
2023/06/05 07:06:27;;;;;;;6.00;1.80;;;;;;;;;;107710;283;42063;-37
2023/06/05 07:09:00;;;;;;;4.90;2.00;;;;;;;;;;107775;274;38738;-36
2023/06/05 07:11:36;;;;;;;5.40;2.00;;;;;;;;;;107764;281;39660;-35
2023/06/05 07:14:11;;;;;;;4.80;1.80;;;;;;;;;;107774;283;42942;-35
2023/06/05 07:16:45;;;;;;;4.90;2.10;;;;;;;;;;107742;275;43157;-35
2023/06/05 07:19:20;;;;;;;4.90;1.90;;;;;;;;;;107760;281;38843;-35
2023/06/05 07:21:57;;;;;;;4.40;1.90;;;;;;;;;;107822;283;39700;-37
2023/06/05 07:24:35;;;;;;;4.60;1.70;;;;;;;;;;107714;274;42898;-35
2023/06/05 07:27:10;;;;;;;5.40;1.70;;;;;;;;;;107782;282;42138;-37
2023/06/05 07:29:43;;;;;;;5.70;1.80;;;;;;;;;;107800;275;38761;-34
2023/06/05 07:32:20;;;;;;;6.60;2.00;;;;;;;;;;107742;281;39725;-36
2023/06/05 07:34:54;;;;;;;4.50;1.90;;;;;;;;;;107732;281;43037;-35
2023/06/05 07:37:28;;;;;;;5.00;2.10;;;;;;;;;;107712;281;43249;-35
2023/06/05 07:40:02;;;;;;;6.70;1.90;;;;;;;;;;107772;281;38761;-37
2023/06/05 07:42:37;;;;;;;8.60;2.70;;;;;;;;;;107720;281;39422;-35
2023/06/05 07:45:13;;;;;;;8.00;2.20;;;;;;;;;;107696;274;44033;-36
2023/06/05 07:47:46;;;;;;;7.90;2.10;;;;;;;;;;107764;281;43843;-36
2023/06/05 07:50:21;;;;;;;6.30;2.10;;;;;;;;;;107671;283;38906;-36
2023/06/05 07:52:56;;;;;;;7.00;2.10;;;;;;;;;;107747;275;39717;-34
2023/06/05 07:55:31;;;;;;;6.40;2.00;;;;;;;;;;107749;281;43228;-36
2023/06/05 07:58:05;;;;;;;6.30;2.00;;;;;;;;;;107716;274;42331;-36
2023/06/05 08:00:43;;;;;;;5.40;1.90;;;;;;;;;;107753;281;38913;-35
2023/06/05 08:03:20;;;;;;;5.40;1.90;;;;;;;;;;107686;282;39697;-34
2023/06/05 08:05:54;;;;;;;5.10;1.80;;;;;;;;;;107727;274;43932;-34
2023/06/05 08:08:31;;;;;;;5.20;1.70;;;;;;;;;;107700;281;42142;-34
2023/06/05 08:11:05;;;;;;;5.40;1.90;;;;;;;;;;107756;282;38581;-35
2023/06/05 08:13:40;;;;;;;4.80;1.90;;;;;;;;;;107749;285;41130;-36
2023/06/05 08:16:15;;;;;;;5.40;1.70;;;;;;;;;;107729;282;42683;-37
2023/06/05 08:18:51;;;;;;;4.90;1.60;;;;;;;;;;107756;281;42135;-37
2023/06/05 08:21:24;;;;;;;3.90;1.40;;;;;;;;;;107128;282;907223;-36
2023/06/05 08:23:58;;;;;;;5.90;2.20;;;;;;;;;;107775;283;39822;-34
2023/06/05 08:26:31;;;;;;;4.60;1.40;;;;;;;;;;107713;281;43925;-36
2023/06/05 08:29:08;;;;;;;5.10;1.70;;;;;;;;;;107748;275;41917;-36
2023/06/05 08:31:42;;;;;;;4.50;1.70;;;;;;;;;;107745;281;38757;-35
2023/06/05 08:34:18;;;;;;;3.80;1.50;;;;;;;;;;107713;274;39835;-35
2023/06/05 08:36:53;;;;;;;5.50;1.40;;;;;;;;;;107774;281;42912;-36
2023/06/05 08:39:31;;;;;;;4.40;1.30;;;;;;;;;;107750;281;42820;-37
2023/06/05 08:42:08;;;;;;;4.20;1.50;;;;;;;;;;107103;281;889006;-36
2023/06/05 08:44:43;;;;;;;4.20;1.50;;;;;;;;;;107825;275;39467;-36
2023/06/05 08:47:33;;;;;;;;;;;;;;;;;;107944;282;48901;-35
2023/06/05 08:50:10;;;;;;;4.50;1.40;;;;;;;;;;107736;282;41944;-35
2023/06/05 08:52:49;;;;;;;5.20;1.80;;;;;;;;;;107774;281;38882;-36
2023/06/05 08:55:31;;;;;;;4.20;1.20;;;;;;;;;;107757;281;39695;-36
2023/06/05 08:58:08;;;;;;;4.50;1.40;;;;;;;;;;107770;274;50350;-36
2023/06/05 09:00:42;;;;;;;2.90;1.40;;;;;;;;;;107824;281;44442;-36
2023/06/05 09:03:20;;;;;;;3.40;1.20;;;;;;;;;;107753;281;38983;-36
2023/06/05 09:05:55;;;;;;;4.70;1.50;;;;;;;;;;107738;274;39682;-36
2023/06/05 09:08:38;;;;;;;4.20;1.50;;;;;;;;;;107710;283;42925;-36
2023/06/05 09:11:26;;;;;;;3.50;1.40;;;;;;;;;;107733;281;42197;-37
2023/06/05 09:14:02;;;;;;;3.90;1.40;;;;;;;;;;107807;275;38768;-35
2023/06/05 09:16:42;;;;;;;3.20;1.50;;;;;;;;;;106187;281;2047013;-39
2023/06/05 09:19:16;;;;;;;3.80;1.10;;;;;;;;;;107776;281;42864;-38
2023/06/05 09:21:55;;;;;;;3.90;1.30;;;;;;;;;;107765;281;42125;-38
2023/06/05 09:24:30;;;;;;;4.80;1.30;;;;;;;;;;107758;275;39227;-39
2023/06/05 09:27:08;;;;;;;4.70;1.40;;;;;;;;;;107710;282;39704;-38
2023/06/05 09:29:44;;;;;;;4.00;1.20;;;;;;;;;;107736;275;44160;-38
2023/06/05 09:32:24;;;;;;;4.10;1.50;;;;;;;;;;107760;283;42146;-39
2023/06/05 09:35:01;;;;;;;5.00;1.50;;;;;;;;;;107725;274;40938;-40
2023/06/05 09:37:39;;;;;;;4.60;1.50;;;;;;;;;;107802;274;39446;-40
2023/06/05 09:40:15;;;;;;;4.00;1.40;;;;;;;;;;107747;282;44092;-37
2023/06/05 09:42:50;;;;;;;4.10;1.40;;;;;;;;;;107783;274;42205;-39
2023/06/05 09:45:24;;;;;;;3.90;1.70;;;;;;;;;;107756;281;40509;-40
2023/06/05 09:48:15;;;;;;;4.90;1.60;;;;;;;;;;107772;282;40918;-38
2023/06/05 09:50:50;;;;;;;4.00;1.30;;;;;;;;;;107677;281;196632;-36
2023/06/05 09:53:29;;;;;;;4.50;1.50;;;;;;;;;;107733;281;42146;-38
2023/06/05 09:56:03;;;;;;;5.00;1.50;;;;;;;;;;107762;274;38540;-39
2023/06/05 09:58:38;;;;;;;4.90;1.50;;;;;;;;;;107756;282;39706;-36
2023/06/05 10:01:13;;;;;;;4.60;1.40;;;;;;;;;;107706;281;43042;-39
2023/06/05 10:03:51;;;;;;;4.50;1.40;;;;;;;;;;107727;282;42229;-40
2023/06/05 10:06:28;;;;;;;4.70;1.50;;;;;;;;;;107663;284;39964;-37
2023/06/05 10:09:04;;;;;;;5.20;1.40;;;;;;;;;;107777;281;39793;-38
2023/06/05 10:11:39;;;;;;;4.00;1.60;;;;;;;;;;107730;281;43971;-38
2023/06/05 10:14:14;;;;;;;4.50;1.50;;;;;;;;;;107676;282;42136;-40
2023/06/05 10:16:52;;;;;;;4.30;1.50;;;;;;;;;;107758;281;38518;-38
2023/06/05 10:19:26;;;;;;;4.40;1.60;;;;;;;;;;107684;283;40899;-40
2023/06/05 10:22:01;;;;;;;3.50;1.50;;;;;;;;;;107715;274;42877;-40
2023/06/05 10:24:42;;;;;;;4.60;1.50;;;;;;;;;;107724;281;42089;-39
2023/06/05 10:27:54;;;;;;;3.70;1.40;;;;;;;;;;107693;281;38790;-39
2023/06/05 10:31:09;;;;;;;3.40;1.20;;;;;;;;;;107675;281;45476;-40
2023/06/05 10:34:03;;;;;;;3.50;1.20;;;;;;;;;;107738;282;44193;-40
2023/06/05 10:37:00;;;;;;;3.90;1.50;;;;;;;;;;107582;275;175412;-40
2023/06/05 10:39:38;;;;;;;4.10;1.30;;;;;;;;;;107724;281;40891;-40
2023/06/05 10:42:13;;;;;;;3.80;1.30;;;;;;;;;;107760;274;39599;-39
2023/06/05 10:44:49;;;;;;;3.40;1.30;;;;;;;;;;107733;283;43216;-39
2023/06/05 10:47:55;;;;;;;3.60;1.40;;;;;;;;;;107730;281;42159;-40
2023/06/05 10:50:32;;;;;;;5.50;1.30;;;;;;;;;;107667;281;39227;-39
2023/06/05 10:53:08;;;;;;;4.10;1.50;;;;;;;;;;107718;281;39806;-41
2023/06/05 10:55:46;;;;;;;6.10;1.80;;;;;;;;;;107757;281;45817;-39
2023/06/05 10:58:23;;;;;;;6.30;2.10;;;;;;;;;;107838;283;42113;-40
2023/06/05 11:01:21;;;;;;;4.80;1.70;;;;;;;;;;107762;281;38922;-38
2023/06/05 11:04:00;;;;;;;5.90;1.90;;;;;;;;;;107745;283;39717;-39
2023/06/05 11:06:34;;;;;;;4.60;1.50;;;;;;;;;;107757;275;42906;-40
2023/06/05 11:09:19;;;;;;;4.80;1.70;;;;;;;;;;107688;281;41835;-40
2023/06/05 11:12:01;;;;;;;4.00;1.60;;;;;;;;;;107675;284;40910;-40
2023/06/05 11:14:49;;;;;;;4.90;1.70;;;;;;;;;;107720;282;39712;-39
2023/06/05 11:17:33;;;;;;;5.20;1.70;;;;;;;;;;107801;282;42939;-39
2023/06/05 11:20:09;;;;;;;4.40;1.60;;;;;;;;;;107737;281;42196;-40
2023/06/05 11:23:16;;;;;;;3.50;1.50;;;;;;;;;;107774;281;38769;-41
2023/06/05 11:25:53;;;;;;;5.10;1.70;;;;;;;;;;107759;283;40799;-39
2023/06/05 11:28:48;;;;;;;4.20;1.60;;;;;;;;;;107714;281;43043;-38
2023/06/05 11:31:34;;;;;;;4.40;1.50;;;;;;;;;;107752;283;42169;-40
2023/06/05 11:34:15;;;;;;;4.70;1.50;;;;;;;;;;107771;274;40115;-40
2023/06/05 11:36:50;;;;;;;4.10;1.40;;;;;;;;;;107771;281;39841;-40
2023/06/05 11:39:29;;;;;;;4.30;1.30;;;;;;;;;;107780;282;43966;-40
2023/06/05 11:42:03;;;;;;;4.30;1.40;;;;;;;;;;107727;281;49197;-39
2023/06/05 11:44:39;;;;;;;4.10;1.50;;;;;;;;;;107782;282;40033;-38
2023/06/05 11:47:26;;;;;;;4.00;1.40;;;;;;;;;;107762;275;39694;-39
2023/06/05 11:50:11;;;;;;;3.90;1.40;;;;;;;;;;107734;281;42949;-38
2023/06/05 11:52:46;;;;;;;4.10;1.40;;;;;;;;;;107822;281;48478;-39
2023/06/05 11:55:32;;;;;;;4.00;1.50;;;;;;;;;;107731;281;38822;-39
2023/06/05 11:58:08;;;;;;;4.60;1.40;;;;;;;;;;107739;274;39740;-38
2023/06/05 12:00:43;;;;;;;3.40;1.40;;;;;;;;;;107628;283;42877;-39
2023/06/05 12:03:22;;;;;;;4.30;1.50;;;;;;;;;;107741;283;42330;-39
2023/06/05 12:05:57;;;;;;;3.30;1.30;;;;;;;;;;107744;281;38799;-39
2023/06/05 12:08:35;;;;;;;4.20;1.30;;;;;;;;;;107788;274;40853;-39
2023/06/05 12:11:25;;;;;;;3.60;1.60;;;;;;;;;;107733;283;44051;-39
2023/06/05 12:13:59;;;;;;;3.30;1.40;;;;;;;;;;107832;274;42290;-39
2023/06/05 12:16:37;;;;;;;3.50;1.20;;;;;;;;;;107666;281;177147;-39
2023/06/05 12:19:19;;;;;;;3.90;1.60;;;;;;;;;;107816;282;39963;-39
2023/06/05 12:22:01;;;;;;;3.90;1.50;;;;;;;;;;107767;281;42875;-39
2023/06/05 12:24:35;;;;;;;3.80;1.40;;;;;;;;;;107823;274;42048;-39
2023/06/05 12:27:13;;;;;;;3.50;1.40;;;;;;;;;;107757;281;38782;-39
2023/06/05 12:29:58;;;;;;;3.70;1.50;;;;;;;;;;107704;282;174976;-39
2023/06/05 12:32:35;;;;;;;3.70;1.50;;;;;;;;;;107701;281;42666;-39
2023/06/05 12:35:22;;;;;;;3.50;1.40;;;;;;;;;;107765;281;41873;-39
2023/06/05 12:38:02;;;;;;;3.60;1.50;;;;;;;;;;107786;282;38761;-39
2023/06/05 12:40:37;;;;;;;4.30;1.60;;;;;;;;;;107871;281;40733;-38
2023/06/05 12:43:22;;;;;;;5.10;1.50;;;;;;;;;;107779;274;43231;-38
2023/06/05 12:45:58;;;;;;;4.00;1.50;;;;;;;;;;107753;281;42155;-40
2023/06/05 12:48:31;;;;;;;4.10;1.50;;;;;;;;;;107780;283;39908;-41
2023/06/05 12:51:05;;;;;;;3.90;1.70;;;;;;;;;;107767;281;39760;-41
2023/06/05 12:53:39;;;;;;;4.60;1.50;;;;;;;;;;107747;282;44058;-39
2023/06/05 12:56:15;;;;;;;3.30;1.30;;;;;;;;;;107807;282;43303;-40
2023/06/05 12:58:48;;;;;;;3.90;1.30;;;;;;;;;;107754;281;38909;-40
2023/06/05 13:01:23;;;;;;;4.40;1.40;;;;;;;;;;107694;283;39811;-40
2023/06/05 13:03:57;;;;;;;3.40;1.40;;;;;;;;;;107724;281;43560;-39
2023/06/05 13:06:33;;;;;;;3.00;1.20;;;;;;;;;;107743;281;42141;-39
2023/06/05 13:09:07;;;;;;;3.80;1.50;;;;;;;;;;107132;281;889439;-42
2023/06/05 13:11:43;;;;;;;4.60;1.50;;;;;;;;;;107771;281;39782;-40
2023/06/05 13:14:18;;;;;;;3.50;1.40;;;;;;;;;;107762;274;48599;-38
2023/06/05 13:16:53;;;;;;;3.90;1.40;;;;;;;;;;107748;281;42405;-37
2023/06/05 13:19:29;;;;;;;3.10;1.20;;;;;;;;;;107701;275;191724;-38
2023/06/05 13:22:04;;;;;;;3.90;1.40;;;;;;;;;;107733;275;39655;-38
2023/06/05 13:24:38;;;;;;;2.60;1.20;;;;;;;;;;107843;281;48325;-38
2023/06/05 13:27:12;;;;;;;3.60;1.50;;;;;;;;;;107746;283;41888;-38
2023/06/05 13:29:49;;;;;;;2.90;1.30;;;;;;;;;;107123;282;887842;-38
2023/06/05 13:32:33;;;;;;;3.10;1.20;;;;;;;;;;107857;282;39727;-37
2023/06/05 13:35:11;;;;;;;3.20;1.30;;;;;;;;;;107715;281;49662;-40
2023/06/05 13:37:48;;;;;;;4.10;1.20;;;;;;;;;;107830;283;42110;-40
2023/06/05 13:40:22;;;;;;;3.50;1.30;;;;;;;;;;107726;281;38755;-39
2023/06/05 13:42:57;;;;;;;3.40;1.10;;;;;;;;;;107686;283;39982;-36
2023/06/05 13:45:31;;;;;;;3.60;1.30;;;;;;;;;;107695;283;49043;-37
2023/06/05 13:48:05;;;;;;;4.10;1.40;;;;;;;;;;107732;281;42120;-37
2023/06/05 13:50:40;;;;;;;2.90;1.30;;;;;;;;;;107726;281;38898;-37
2023/06/05 13:53:15;;;;;;;3.20;1.40;;;;;;;;;;107712;281;39851;-37
2023/06/05 13:55:49;;;;;;;4.10;1.30;;;;;;;;;;107725;281;49068;-36
2023/06/05 13:58:22;;;;;;;4.60;1.40;;;;;;;;;;107673;283;42243;-37
2023/06/05 14:00:58;;;;;;;3.40;1.20;;;;;;;;;;107693;281;38775;-37
2023/06/05 14:03:32;;;;;;;3.00;1.10;;;;;;;;;;107805;279;39723;-38
2023/06/05 14:06:07;;;;;;;3.10;1.20;;;;;;;;;;107723;282;50123;-38
2023/06/05 14:08:41;;;;;;;3.30;1.20;;;;;;;;;;107773;274;42175;-39
2023/06/05 14:11:14;;;;;;;4.50;1.50;;;;;;;;;;107743;281;38992;-38
2023/06/05 14:13:48;;;;;;;3.30;1.20;;;;;;;;;;107763;274;39773;-39
2023/06/05 14:16:21;;;;;;;3.70;1.30;;;;;;;;;;107741;281;50315;-40
2023/06/05 14:18:56;;;;;;;3.10;1.40;;;;;;;;;;107760;274;42143;-38
2023/06/05 14:21:30;;;;;;;3.10;1.20;;;;;;;;;;107761;281;39039;-38
2023/06/05 14:24:07;;;;;;;3.80;1.30;;;;;;;;;;107730;282;40834;-41
2023/06/05 14:26:42;;;;;;;2.80;1.20;;;;;;;;;;107772;281;49009;-39
2023/06/05 14:29:18;;;;;;;2.50;1.20;;;;;;;;;;107806;274;42147;-39
2023/06/05 14:31:52;;;;;;;3.30;1.30;;;;;;;;;;107773;284;39898;-40
2023/06/05 14:34:26;;;;;;;3.50;1.30;;;;;;;;;;107687;281;39724;-37
2023/06/05 14:37:01;;;;;;;3.60;1.40;;;;;;;;;;107737;281;49010;-38
2023/06/05 14:39:38;;;;;;;3.30;1.20;;;;;;;;;;107741;274;42161;-38
2023/06/05 14:42:13;;;;;;;3.00;1.30;;;;;;;;;;107766;281;38983;-38
2023/06/05 14:44:47;;;;;;;5.20;1.60;;;;;;;;;;107732;281;40871;-38
2023/06/05 14:47:22;;;;;;;3.70;1.50;;;;;;;;;;107766;281;42937;-38
2023/06/05 14:49:55;;;;;;;4.10;1.50;;;;;;;;;;107758;275;42172;-39
2023/06/05 14:52:30;;;;;;;5.00;1.40;;;;;;;;;;107713;281;38841;-40
2023/06/05 14:55:06;;;;;;;4.00;1.30;;;;;;;;;;107705;274;39784;-39
2023/06/05 14:57:40;;;;;;;3.90;1.40;;;;;;;;;;107755;282;42819;-40
2023/06/05 15:00:15;;;;;;;3.50;1.50;;;;;;;;;;107733;275;42150;-39
2023/06/05 15:02:48;;;;;;;4.00;1.50;;;;;;;;;;107785;283;39979;-38
2023/06/05 15:05:23;;;;;;;3.70;1.30;;;;;;;;;;107684;278;39724;-39
2023/06/05 15:07:59;;;;;;;3.60;1.50;;;;;;;;;;107752;283;42978;-38
2023/06/05 15:10:35;;;;;;;4.30;1.50;;;;;;;;;;107766;282;42122;-40
2023/06/05 15:13:12;;;;;;;3.70;1.60;;;;;;;;;;107761;274;39604;-39
2023/06/05 15:15:46;;;;;;;5.00;1.50;;;;;;;;;;107715;274;39690;-37
2023/06/05 15:18:23;;;;;;;5.20;1.60;;;;;;;;;;107770;283;43209;-37
2023/06/05 15:20:59;;;;;;;4.10;1.40;;;;;;;;;;107763;283;42143;-37
2023/06/05 15:23:34;;;;;;;3.80;1.40;;;;;;;;;;107774;274;38938;-37
2023/06/05 15:26:08;;;;;;;4.20;1.40;;;;;;;;;;107680;283;39722;-37
2023/06/05 15:28:43;;;;;;;4.20;1.50;;;;;;;;;;107745;283;42914;-37
2023/06/05 15:31:22;;;;;;;3.90;1.40;;;;;;;;;;107827;283;42213;-36
2023/06/05 15:33:55;;;;;;;4.20;1.50;;;;;;;;;;107839;283;38852;-36
2023/06/05 15:36:30;;;;;;;4.80;1.40;;;;;;;;;;107794;283;39953;-36
2023/06/05 15:39:09;;;;;;;4.60;1.50;;;;;;;;;;107798;282;42854;-36
2023/06/05 15:41:44;;;;;;;;;;;;;;;;;;107830;282;41909;-37